createdAt,value
2022-09-24T00:01:39.241Z,19.77
2022-09-24T00:04:12.404Z,16.80
2022-09-24T00:06:48.329Z,16.57
2022-09-24T00:09:19.495Z,18.80
2022-09-24T00:11:46.704Z,17.03
2022-09-24T00:14:14.123Z,20.27
2022-09-24T00:16:42.749Z,14.13
2022-09-24T00:19:10.755Z,15.07
2022-09-24T00:21:38.740Z,12.83
2022-09-24T00:24:33.559Z,15.47
2022-09-24T00:27:02.929Z,13.47
2022-09-24T00:29:33.935Z,15.50
2022-09-24T00:32:01.607Z,15.93
2022-09-24T00:34:29.364Z,20.43
2022-09-24T00:36:56.435Z,17.03
2022-09-24T00:39:23.399Z,17.40
2022-09-24T00:41:50.339Z,14.57
2022-09-24T00:44:44.923Z,16.00
2022-09-24T00:47:35.268Z,19.23
2022-09-24T00:50:33.906Z,13.43
2022-09-24T00:53:31.989Z,17.90
2022-09-24T00:56:01.782Z,16.67
2022-09-24T00:58:31.420Z,23.33
2022-09-24T01:01:06.533Z,14.93
2022-09-24T01:03:40.850Z,17.33
2022-09-24T01:06:09.191Z,18.30
2022-09-24T01:08:36.396Z,15.83
2022-09-24T01:11:36.770Z,15.13
2022-09-24T01:14:11.146Z,17.33
2022-09-24T01:17:01.281Z,16.53
2022-09-24T01:20:25.430Z,15.37
2022-09-24T01:23:26.137Z,20.13
2022-09-24T01:26:19.974Z,15.90
2022-09-24T01:29:32.594Z,19.70
2022-09-24T01:32:12.766Z,15.83
2022-09-24T01:35:07.646Z,16.70
2022-09-24T01:37:38.154Z,18.53
2022-09-24T01:40:07.602Z,19.17
2022-09-24T01:42:38.317Z,19.37
2022-09-24T01:45:06.511Z,18.07
2022-09-24T01:47:40.675Z,19.53
2022-09-24T01:50:12.262Z,20.23
2022-09-24T01:52:55.659Z,16.23
2022-09-24T01:55:27.435Z,19.33
2022-09-24T01:58:02.113Z,22.80
2022-09-24T02:00:29.334Z,22.47
2022-09-24T02:03:30.135Z,23.27
2022-09-24T02:06:14.555Z,20.00
2022-09-24T02:08:47.057Z,23.47
2022-09-24T02:11:23.475Z,19.80
2022-09-24T02:14:07.873Z,19.63
2022-09-24T02:16:41.491Z,25.00
2022-09-24T02:19:15.130Z,24.83
2022-09-24T02:21:44.476Z,17.57
2022-09-24T02:24:30.501Z,22.03
2022-09-24T02:26:57.517Z,22.63
2022-09-24T02:29:24.929Z,20.20
2022-09-24T02:31:55.762Z,20.23
2022-09-24T02:34:33.218Z,22.50
2022-09-24T02:37:11.135Z,27.37
2022-09-24T02:39:38.480Z,29.67
2022-09-24T02:42:07.839Z,29.67
2022-09-24T02:44:38.940Z,20.73
2022-09-24T02:47:06.763Z,22.93
2022-09-24T02:49:33.949Z,24.47
2022-09-24T02:52:00.970Z,26.50
2022-09-24T02:54:28.095Z,23.90
2022-09-24T02:56:55.256Z,34.43
2022-09-24T02:59:22.657Z,30.50
2022-09-24T03:01:50.366Z,27.03
2022-09-24T03:04:17.720Z,29.30
2022-09-24T03:06:44.745Z,27.43
2022-09-24T03:09:14.736Z,29.50
2022-09-24T03:11:41.800Z,30.47
2022-09-24T03:14:08.885Z,34.03
2022-09-24T03:16:35.973Z,31.13
2022-09-24T03:19:03.187Z,32.87
2022-09-24T03:21:30.184Z,37.40
2022-09-24T03:23:57.274Z,34.13
2022-09-24T03:26:24.373Z,35.10
2022-09-24T03:28:51.351Z,31.47
2022-09-24T03:31:18.512Z,31.57
2022-09-24T03:33:49.048Z,34.63
2022-09-24T03:36:26.119Z,29.53
2022-09-24T03:38:56.614Z,34.43
2022-09-24T03:41:28.199Z,35.60
2022-09-24T03:43:56.096Z,26.87
2022-09-24T03:46:24.977Z,27.27
2022-09-24T03:48:52.215Z,31.10
2022-09-24T03:51:20.193Z,32.27
2022-09-24T03:53:48.348Z,30.57
2022-09-24T03:56:16.062Z,28.47
2022-09-24T03:58:47.660Z,27.03
2022-09-24T04:01:20.688Z,33.43
2022-09-24T04:03:49.400Z,38.93
2022-09-24T04:06:18.634Z,28.33
2022-09-24T04:08:47.808Z,32.67
2022-09-24T04:11:14.744Z,31.67
2022-09-24T04:13:41.664Z,36.73
2022-09-24T04:16:08.660Z,41.03
2022-09-24T04:18:39.274Z,32.40
2022-09-24T04:21:06.862Z,34.27
2022-09-24T04:23:34.080Z,38.60
2022-09-24T04:26:02.411Z,30.27
2022-09-24T04:28:30.662Z,32.77
2022-09-24T04:30:58.203Z,36.23
2022-09-24T04:33:25.336Z,33.93
2022-09-24T04:35:52.376Z,30.10
2022-09-24T04:38:21.383Z,29.27
2022-09-24T04:40:49.155Z,29.43
2022-09-24T04:43:17.518Z,26.90
2022-09-24T04:45:45.056Z,31.63
2022-09-24T04:48:12.490Z,33.37
2022-09-24T04:50:43.420Z,29.67
2022-09-24T04:53:12.893Z,29.27
2022-09-24T04:55:41.702Z,27.97
2022-09-24T04:58:09.525Z,28.50
2022-09-24T05:00:36.663Z,29.30
2022-09-24T05:03:03.788Z,30.97
2022-09-24T05:05:32.823Z,36.80
2022-09-24T05:08:01.612Z,39.43
2022-09-24T05:10:31.557Z,38.83
2022-09-24T05:12:59.125Z,35.90
2022-09-24T05:15:26.254Z,32.63
2022-09-24T05:17:53.246Z,28.20
2022-09-24T05:20:20.476Z,30.87
2022-09-24T05:22:49.841Z,33.53
2022-09-24T05:25:20.511Z,31.50
2022-09-24T05:27:53.372Z,29.73
2022-09-24T05:30:22.723Z,28.47
2022-09-24T05:32:52.322Z,26.65
2022-09-24T05:35:21.569Z,25.83
2022-09-24T05:37:49.698Z,25.52
2022-09-24T05:40:35.762Z,30.75
2022-09-24T05:43:04.335Z,29.90
2022-09-24T05:45:31.788Z,27.75
2022-09-24T05:48:02.082Z,28.17
2022-09-24T05:50:29.213Z,23.83
2022-09-24T05:52:56.318Z,30.83
2022-09-24T05:55:23.224Z,30.02
2022-09-24T05:57:50.505Z,25.42
2022-09-24T06:00:17.455Z,21.73
2022-09-24T06:02:44.505Z,22.65
2022-09-24T06:05:12.923Z,26.33
2022-09-24T06:07:39.955Z,25.63
2022-09-24T06:10:07.596Z,26.42
2022-09-24T06:12:35.049Z,27.40
2022-09-24T06:15:02.957Z,26.23
2022-09-24T06:17:31.959Z,24.88
2022-09-24T06:19:58.887Z,21.75
2022-09-24T06:22:28.521Z,25.52
2022-09-24T06:24:56.150Z,24.85
2022-09-24T06:27:23.121Z,21.75
2022-09-24T06:29:50.041Z,20.90
2022-09-24T06:32:17.675Z,23.27
2022-09-24T06:34:44.587Z,23.15
2022-09-24T06:37:11.654Z,21.60
2022-09-24T06:39:38.787Z,19.42
2022-09-24T06:42:07.037Z,18.92
2022-09-24T06:44:34.662Z,19.88
2022-09-24T06:47:01.991Z,16.48
2022-09-24T06:49:33.781Z,19.27
2022-09-24T06:52:02.018Z,21.13
2022-09-24T06:54:29.033Z,16.67
2022-09-24T06:56:56.032Z,18.23
2022-09-24T06:59:22.975Z,20.98
2022-09-24T07:01:49.951Z,52.60
2022-09-24T07:04:16.979Z,43.92
2022-09-24T07:07:02.957Z,37.55
2022-09-24T07:09:29.921Z,42.60
2022-09-24T07:12:01.499Z,36.97
2022-09-24T07:14:28.433Z,28.23
2022-09-24T07:16:55.355Z,28.23
2022-09-24T07:19:22.293Z,40.10
2022-09-24T07:21:49.207Z,30.05
2022-09-24T07:24:16.125Z,33.22
2022-09-24T07:26:43.059Z,21.60
2022-09-24T07:29:10.081Z,23.50
2022-09-24T07:31:37.403Z,22.23
2022-09-24T07:34:08.666Z,27.02
2022-09-24T07:36:35.935Z,19.83
2022-09-24T07:39:02.939Z,22.92
2022-09-24T07:41:30.615Z,24.67
2022-09-24T07:43:57.591Z,18.15
2022-09-24T07:46:24.927Z,16.08
2022-09-24T07:48:58.281Z,18.42
2022-09-24T07:51:29.582Z,19.48
2022-09-24T07:53:57.551Z,25.90
2022-09-24T07:56:25.435Z,16.17
2022-09-24T07:58:53.717Z,17.95
2022-09-24T08:01:21.103Z,21.08
2022-09-24T08:03:48.335Z,16.75
2022-09-24T08:06:15.426Z,16.52
2022-09-24T08:08:43.565Z,12.18
2022-09-24T08:11:17.104Z,16.08
2022-09-24T08:13:45.194Z,18.05
2022-09-24T08:16:13.024Z,16.15
2022-09-24T08:18:40.401Z,21.38
2022-09-24T08:21:11.943Z,15.40
2022-09-24T08:23:40.196Z,16.63
2022-09-24T08:26:08.600Z,10.43
2022-09-24T08:28:36.599Z,13.50
2022-09-24T08:31:10.002Z,16.98
2022-09-24T08:33:38.260Z,23.55
2022-09-24T08:36:09.404Z,14.95
2022-09-24T08:38:36.512Z,15.90
2022-09-24T08:41:27.167Z,17.58
2022-09-24T08:44:10.931Z,23.27
2022-09-24T08:47:04.874Z,14.68
2022-09-24T08:49:45.437Z,15.20
2022-09-24T08:52:24.686Z,16.25
2022-09-24T08:54:53.622Z,18.55
2022-09-24T08:57:21.878Z,24.60
2022-09-24T08:59:53.337Z,13.00
2022-09-24T09:02:53.448Z,18.52
2022-09-24T09:05:49.650Z,13.65
2022-09-24T09:08:54.612Z,9.02
2022-09-24T09:11:20.332Z,8.48
2022-09-24T09:14:01.065Z,6.22
2022-09-24T09:16:31.495Z,6.53
2022-09-24T09:19:06.940Z,11.98
2022-09-24T09:21:52.730Z,18.35
2022-09-24T09:24:26.938Z,6.70
2022-09-24T09:26:56.753Z,5.60
2022-09-24T09:29:28.142Z,5.38
2022-09-24T09:32:38.554Z,5.10
2022-09-24T09:35:29.215Z,4.43
2022-09-24T09:38:23.427Z,3.85
2022-09-24T09:41:20.232Z,3.80
2022-09-24T09:43:47.244Z,4.85
2022-09-24T09:46:26.171Z,2.92
2022-09-24T09:49:07.066Z,6.15
2022-09-24T09:51:41.116Z,4.50
2022-09-24T09:54:08.378Z,2.03
2022-09-24T09:56:49.783Z,2.92
2022-09-24T09:59:28.857Z,3.13
2022-09-24T10:01:57.603Z,4.22
2022-09-24T10:04:39.641Z,3.30
2022-09-24T10:07:16.231Z,2.85
2022-09-24T10:09:45.269Z,1.27
2022-09-24T10:12:22.295Z,1.48
2022-09-24T10:15:06.194Z,2.92
2022-09-24T10:17:39.385Z,3.05
2022-09-24T10:20:26.122Z,4.03
2022-09-24T10:23:13.133Z,2.80
2022-09-24T10:25:40.249Z,2.67
2022-09-24T10:28:28.521Z,4.90
2022-09-24T10:31:01.765Z,3.13
2022-09-24T10:33:38.876Z,5.43
2022-09-24T10:36:28.798Z,2.65
2022-09-24T10:39:07.658Z,3.60
2022-09-24T10:41:35.934Z,5.10
2022-09-24T10:44:13.986Z,3.25
2022-09-24T10:47:27.230Z,6.68
2022-09-24T10:50:25.302Z,2.83
2022-09-24T10:53:38.817Z,2.47
2022-09-24T10:56:18.460Z,3.20
2022-09-24T10:59:19.133Z,3.67
2022-09-24T11:02:04.710Z,7.05
2022-09-24T11:04:44.161Z,3.63
2022-09-24T11:07:45.251Z,4.50
2022-09-24T11:11:00.986Z,8.38
2022-09-24T11:14:04.292Z,3.55
2022-09-24T11:17:03.292Z,6.07
2022-09-24T11:19:51.480Z,5.85
2022-09-24T11:22:56.513Z,5.15
2022-09-24T11:25:56.626Z,3.25
2022-09-24T11:29:02.817Z,6.88
2022-09-24T11:32:05.130Z,2.92
2022-09-24T11:35:25.912Z,5.00
2022-09-24T11:38:08.229Z,3.40
2022-09-24T11:41:21.503Z,3.72
2022-09-24T11:44:21.747Z,4.32
2022-09-24T11:47:03.057Z,4.03
2022-09-24T11:50:02.018Z,3.78
2022-09-24T11:53:02.923Z,2.80
2022-09-24T11:55:53.701Z,4.28
2022-09-24T11:59:00.259Z,3.03
2022-09-24T12:01:33.931Z,2.30
2022-09-24T12:04:15.073Z,3.95
2022-09-24T12:07:02.908Z,3.80
2022-09-24T12:09:41.202Z,3.97
2022-09-24T12:12:27.706Z,3.17
2022-09-24T12:15:19.347Z,2.28
2022-09-24T12:18:08.614Z,2.97
2022-09-24T12:20:55.016Z,2.85
2022-09-24T12:23:29.375Z,1.38
2022-09-24T12:26:00.133Z,6.78
2022-09-24T12:29:09.802Z,3.97
2022-09-24T12:32:19.670Z,6.05
2022-09-24T12:35:00.519Z,2.95
2022-09-24T12:37:38.713Z,7.68
2022-09-24T12:40:54.674Z,1.88
2022-09-24T12:43:58.189Z,1.65
2022-09-24T12:46:40.287Z,1.88
2022-09-24T12:49:36.806Z,4.57
2022-09-24T12:52:43.335Z,1.73
2022-09-24T12:55:26.769Z,3.45
2022-09-24T12:58:06.267Z,1.77
2022-09-24T13:00:42.564Z,3.25
2022-09-24T13:03:44.605Z,5.43
2022-09-24T13:06:37.372Z,3.53
2022-09-24T13:09:31.119Z,1.45
2022-09-24T13:12:15.727Z,4.80
2022-09-24T13:14:58.394Z,1.70
2022-09-24T13:17:25.437Z,1.73
2022-09-24T13:20:05.006Z,3.13
2022-09-24T13:22:35.991Z,0.80
2022-09-24T13:25:08.587Z,3.10
2022-09-24T13:27:39.778Z,1.77
2022-09-24T13:30:12.482Z,2.97
2022-09-24T13:33:00.707Z,2.17
2022-09-24T13:35:35.016Z,1.75
2022-09-24T13:38:17.038Z,2.85
2022-09-24T13:40:56.837Z,4.78
2022-09-24T13:43:59.605Z,4.30
2022-09-24T13:46:28.160Z,2.15
2022-09-24T13:49:13.756Z,3.13
2022-09-24T13:51:43.079Z,3.40
2022-09-24T13:54:36.884Z,6.78
2022-09-24T13:57:23.589Z,4.68
2022-09-24T14:00:01.560Z,4.20
2022-09-24T14:02:38.491Z,6.50
2022-09-24T14:05:15.198Z,4.22
2022-09-24T14:07:43.269Z,2.67
2022-09-24T14:10:15.003Z,3.30
2022-09-24T14:12:42.021Z,10.40
2022-09-24T14:15:18.239Z,2.55
2022-09-24T14:17:59.055Z,5.55
2022-09-24T14:20:32.247Z,3.42
2022-09-24T14:22:59.257Z,3.55
2022-09-24T14:25:32.102Z,4.80
2022-09-24T14:28:02.405Z,11.23
2022-09-24T14:30:32.369Z,4.65
2022-09-24T14:33:16.056Z,4.25
2022-09-24T14:35:49.522Z,3.10
2022-09-24T14:38:26.303Z,5.43
2022-09-24T14:41:03.386Z,3.83
2022-09-24T14:43:45.183Z,3.00
2022-09-24T14:46:41.045Z,4.18
2022-09-24T14:49:44.433Z,5.35
2022-09-24T14:52:28.367Z,4.72
2022-09-24T14:55:20.643Z,3.53
2022-09-24T14:57:55.221Z,4.72
2022-09-24T15:00:27.609Z,3.25
2022-09-24T15:03:27.256Z,3.88
2022-09-24T15:06:13.116Z,3.10
2022-09-24T15:08:41.519Z,3.60
2022-09-24T15:11:19.739Z,2.40
2022-09-24T15:13:57.220Z,4.30
2022-09-24T15:16:36.193Z,4.22
2022-09-24T15:19:25.582Z,3.80
2022-09-24T15:21:56.712Z,5.95
2022-09-24T15:24:25.039Z,3.40
2022-09-24T15:27:05.489Z,6.65
2022-09-24T15:29:32.849Z,3.42
2022-09-24T15:31:59.861Z,8.77
2022-09-24T15:34:28.425Z,5.80
2022-09-24T15:36:59.453Z,3.55
2022-09-24T15:39:28.221Z,11.20
2022-09-24T15:41:55.418Z,2.42
2022-09-24T15:44:31.334Z,5.88
2022-09-24T15:47:00.668Z,4.55
2022-09-24T15:49:27.632Z,5.72
2022-09-24T15:52:13.462Z,8.38
2022-09-24T15:54:40.940Z,3.67
2022-09-24T15:57:12.121Z,3.97
2022-09-24T15:59:39.288Z,8.15
2022-09-24T16:02:17.804Z,5.50
2022-09-24T16:04:45.379Z,13.25
2022-09-24T16:07:12.423Z,5.55
2022-09-24T16:09:39.563Z,8.00
2022-09-24T16:12:07.103Z,7.63
2022-09-24T16:14:34.106Z,23.90
2022-09-24T16:17:01.010Z,16.90
2022-09-24T16:19:29.551Z,9.77
2022-09-24T16:21:56.609Z,8.75
2022-09-24T16:24:23.716Z,7.53
2022-09-24T16:26:50.667Z,9.07
2022-09-24T16:29:18.185Z,6.78
2022-09-24T16:31:45.745Z,5.57
2022-09-24T16:34:12.826Z,6.55
2022-09-24T16:36:39.743Z,10.07
2022-09-24T16:39:06.743Z,10.07
2022-09-24T16:41:34.632Z,9.20
2022-09-24T16:44:02.334Z,10.57
2022-09-24T16:46:29.646Z,16.48
2022-09-24T16:48:56.713Z,10.80
2022-09-24T16:51:24.050Z,10.90
2022-09-24T16:53:55.676Z,6.85
2022-09-24T16:56:23.373Z,9.48
2022-09-24T16:58:51.159Z,5.38
2022-09-24T17:01:20.926Z,12.50
2022-09-24T17:03:56.416Z,6.78
2022-09-24T17:06:30.190Z,8.80
2022-09-24T17:09:15.695Z,9.90
2022-09-24T17:11:42.781Z,8.60
2022-09-24T17:14:13.562Z,13.45
2022-09-24T17:16:41.619Z,10.40
2022-09-24T17:19:11.801Z,10.63
2022-09-24T17:21:42.070Z,13.88
2022-09-24T17:24:09.821Z,12.48
2022-09-24T17:26:38.491Z,15.45
2022-09-24T17:29:05.708Z,9.13
2022-09-24T17:31:32.964Z,10.57
2022-09-24T17:34:07.055Z,8.02
2022-09-24T17:36:35.362Z,16.38
2022-09-24T17:39:03.199Z,16.65
2022-09-24T17:41:30.513Z,13.60
2022-09-24T17:44:01.267Z,15.40
2022-09-24T17:46:32.052Z,10.25
2022-09-24T17:49:00.646Z,10.93
2022-09-24T17:51:32.639Z,14.93
2022-09-24T17:54:02.407Z,11.38
2022-09-24T17:56:32.442Z,10.88
2022-09-24T17:59:00.449Z,22.30
2022-09-24T18:01:33.702Z,9.63
2022-09-24T18:04:00.941Z,10.32
2022-09-24T18:06:32.857Z,8.85
2022-09-24T18:09:01.532Z,12.02
2022-09-24T18:11:33.233Z,10.82
2022-09-24T18:14:02.786Z,22.30
2022-09-24T18:16:34.175Z,18.88
2022-09-24T18:19:02.990Z,25.42
2022-09-24T18:21:30.749Z,16.83
2022-09-24T18:24:00.589Z,23.10
2022-09-24T18:26:35.500Z,14.80
2022-09-24T18:29:22.795Z,12.85
2022-09-24T18:31:51.680Z,16.00
2022-09-24T18:34:18.830Z,11.90
2022-09-24T18:36:46.158Z,19.40
2022-09-24T18:39:21.873Z,13.98
2022-09-24T18:41:51.073Z,14.38
2022-09-24T18:44:19.768Z,14.38
2022-09-24T18:46:47.066Z,21.25
2022-09-24T18:49:14.019Z,20.98
2022-09-24T18:51:40.952Z,9.63
2022-09-24T18:54:12.530Z,18.25
2022-09-24T18:56:39.743Z,19.08
2022-09-24T18:59:19.501Z,10.32
2022-09-24T19:01:48.638Z,22.27
2022-09-24T19:04:17.375Z,19.40
2022-09-24T19:06:48.102Z,22.38
2022-09-24T19:09:17.511Z,14.15
2022-09-24T19:11:45.524Z,11.98
2022-09-24T19:14:14.964Z,18.95
2022-09-24T19:16:41.876Z,13.48
2022-09-24T19:19:09.850Z,15.00
2022-09-24T19:21:38.318Z,27.70
2022-09-24T19:24:06.948Z,15.73
2022-09-24T19:26:36.388Z,16.80
2022-09-24T19:29:04.814Z,16.58
2022-09-24T19:31:36.607Z,16.88
2022-09-24T19:34:06.209Z,16.60
2022-09-24T19:36:42.750Z,10.48
2022-09-24T19:39:18.201Z,15.27
2022-09-24T19:41:46.268Z,15.50
2022-09-24T19:44:13.824Z,14.60
2022-09-24T19:46:41.404Z,14.48
2022-09-24T19:49:08.761Z,16.55
2022-09-24T19:51:37.290Z,15.00
2022-09-24T19:54:07.328Z,16.95
2022-09-24T19:56:35.961Z,16.80
2022-09-24T19:59:04.116Z,13.55
2022-09-24T20:01:33.716Z,14.07
2022-09-24T20:04:05.353Z,13.32
2022-09-24T20:06:34.290Z,13.68
2022-09-24T20:09:01.305Z,20.80
2022-09-24T20:11:32.213Z,14.80
2022-09-24T20:13:59.623Z,16.48
2022-09-24T20:16:28.410Z,15.02
2022-09-24T20:18:59.906Z,20.33
2022-09-24T20:21:32.102Z,18.42
2022-09-24T20:23:59.297Z,15.80
2022-09-24T20:26:45.532Z,15.40
2022-09-24T20:29:14.583Z,17.63
2022-09-24T20:31:51.915Z,12.90
2022-09-24T20:34:22.036Z,13.15
2022-09-24T20:36:49.481Z,18.25
2022-09-24T20:39:16.814Z,19.85
2022-09-24T20:41:44.161Z,16.02
2022-09-24T20:44:11.109Z,19.02
2022-09-24T20:46:39.241Z,24.70
2022-09-24T20:49:06.399Z,24.80
2022-09-24T20:51:37.255Z,14.40
2022-09-24T20:54:04.648Z,14.38
2022-09-24T20:56:31.762Z,16.90
2022-09-24T20:59:00.947Z,19.83
2022-09-24T21:01:27.988Z,16.30
2022-09-24T21:03:55.065Z,19.55
2022-09-24T21:06:23.066Z,17.92
2022-09-24T21:08:51.476Z,19.83
2022-09-24T21:11:22.262Z,16.80
2022-09-24T21:13:52.410Z,15.40
2022-09-24T21:16:25.664Z,14.93
2022-09-24T21:18:56.436Z,17.20
2022-09-24T21:21:35.260Z,13.05
2022-09-24T21:24:02.755Z,13.35
2022-09-24T21:26:33.189Z,13.60
2022-09-24T21:29:09.460Z,18.23
2022-09-24T21:31:39.205Z,18.17
2022-09-24T21:34:07.603Z,14.48
2022-09-24T21:36:44.700Z,16.45
2022-09-24T21:39:23.214Z,15.63
2022-09-24T21:41:53.052Z,16.13
2022-09-24T21:44:21.353Z,19.83
2022-09-24T21:46:50.974Z,16.48
2022-09-24T21:49:19.479Z,14.30
2022-09-24T21:51:46.913Z,13.20
2022-09-24T21:54:17.139Z,16.17
2022-09-24T21:56:45.804Z,14.45
2022-09-24T21:59:32.141Z,18.20
2022-09-24T22:01:59.519Z,13.10
2022-09-24T22:04:27.721Z,16.80
2022-09-24T22:06:54.675Z,14.93
2022-09-24T22:09:22.495Z,14.20
2022-09-24T22:11:51.405Z,14.75
2022-09-24T22:14:18.498Z,17.13
2022-09-24T22:16:45.527Z,22.80
2022-09-24T22:19:13.088Z,13.82
2022-09-24T22:21:40.587Z,15.57
2022-09-24T22:24:07.529Z,12.77
2022-09-24T22:26:34.497Z,13.60
2022-09-24T22:29:02.099Z,10.93
2022-09-24T22:31:29.142Z,13.87
2022-09-24T22:34:14.681Z,22.33
2022-09-24T22:36:41.769Z,18.70
2022-09-24T22:39:09.471Z,24.67
2022-09-24T22:41:40.131Z,21.93
2022-09-24T22:44:07.616Z,21.23
2022-09-24T22:46:36.453Z,18.70
2022-09-24T22:49:05.844Z,14.63
2022-09-24T22:51:33.719Z,14.93
2022-09-24T22:54:00.898Z,20.67
2022-09-24T22:56:28.661Z,16.20
2022-09-24T22:59:00.315Z,14.40
2022-09-24T23:01:31.795Z,17.70
2022-09-24T23:03:59.717Z,13.87
2022-09-24T23:06:27.769Z,15.73
2022-09-24T23:08:56.077Z,16.67
2022-09-24T23:11:27.739Z,21.37
2022-09-24T23:14:00.644Z,24.17
2022-09-24T23:16:31.690Z,19.33
2022-09-24T23:19:02.214Z,22.57
2022-09-24T23:21:31.619Z,14.60
2022-09-24T23:24:03.047Z,18.67
2022-09-24T23:26:31.469Z,20.93
2022-09-24T23:28:59.694Z,20.67
2022-09-24T23:31:34.380Z,22.77
2022-09-24T23:34:02.781Z,23.00
2022-09-24T23:36:32.211Z,23.90
2022-09-24T23:39:01.219Z,28.00
2022-09-24T23:41:29.984Z,25.90
2022-09-24T23:43:57.128Z,19.77
2022-09-24T23:46:24.165Z,20.90
2022-09-24T23:48:51.317Z,24.93
2022-09-24T23:51:18.308Z,27.97
2022-09-24T23:53:46.158Z,29.10
2022-09-24T23:56:13.726Z,28.07
2022-09-24T23:58:42.140Z,30.17
